Delmar, Iowa
Current Conditions -  °F | °C
As of 9:55 PM on Friday 24 Oct 2014 (Local Time) from KCWI Reporting Station
Overcast Overcast  
Wind Chill: 59°   Ceiling: 3500
Heat Index: 59°   Visibility: 7mi
Dew Point: 55°   Wind: 5mph
Humidity: 88%   Direction: 270°W
Pressure: 29.97"   Gusts: NA
Location:  42°N, 90.61°W
Report Text: KCWI 250255Z 27004KT 7SM OVC035 15/13 A2997 RMK AO1 52003
Loading
Personal Weather Stations






























Interactive Weather Map
Tropical Storm Tracking
New forecast layout! Learn more

10-Day Weather Forecast

Advertisements
Track Severe Weather on mobile